createdAt,value
2019-02-17T00:01:29.334Z,22.97
2019-02-17T00:03:59.727Z,24.53
2019-02-17T00:06:30.361Z,25.57
2019-02-17T00:09:00.832Z,25.77
2019-02-17T00:11:31.233Z,23.97
2019-02-17T00:14:07.999Z,23.73
2019-02-17T00:16:41.643Z,24.60
2019-02-17T00:19:12.031Z,22.73
2019-02-17T00:21:48.565Z,24.53
2019-02-17T00:24:19.790Z,25.20
2019-02-17T00:26:50.362Z,23.03
2019-02-17T00:29:21.023Z,22.70
2019-02-17T00:32:10.789Z,25.17
2019-02-17T00:34:44.298Z,24.93
2019-02-17T00:39:58.190Z,21.90
2019-02-17T00:42:28.568Z,21.77
2019-02-17T00:44:58.955Z,21.23
2019-02-17T00:47:29.672Z,20.13
2019-02-17T00:50:00.315Z,22.53
2019-02-17T00:52:31.399Z,21.97
2019-02-17T00:55:01.874Z,22.63
2019-02-17T00:57:32.464Z,22.07
2019-02-17T01:00:02.903Z,22.10
2019-02-17T01:02:37.326Z,22.27
2019-02-17T01:05:12.877Z,20.77
2019-02-17T01:07:47.361Z,23.40
2019-02-17T01:10:18.525Z,21.93
2019-02-17T01:12:48.914Z,20.80
2019-02-17T01:15:19.462Z,22.73
2019-02-17T01:17:50.797Z,22.63
2019-02-17T01:20:21.210Z,23.00
2019-02-17T01:22:51.946Z,23.27
2019-02-17T01:25:22.287Z,22.80
2019-02-17T01:27:52.685Z,20.37
2019-02-17T01:30:23.207Z,21.07
2019-02-17T01:32:55.712Z,24.13
2019-02-17T01:35:26.043Z,20.87
2019-02-17T01:37:58.262Z,22.03
2019-02-17T01:40:27.304Z,20.97
2019-02-17T01:42:58.651Z,18.10
2019-02-17T01:45:29.993Z,22.13
2019-02-17T01:48:00.437Z,21.53
2019-02-17T01:50:32.601Z,22.37
2019-02-17T01:53:03.191Z,22.90
2019-02-17T01:55:37.799Z,22.77
2019-02-17T01:58:08.135Z,22.27
2019-02-17T02:00:57.686Z,27.03
2019-02-17T02:03:29.030Z,23.67
2019-02-17T02:05:59.861Z,20.30
2019-02-17T02:08:30.261Z,21.27
2019-02-17T02:11:00.873Z,19.30
2019-02-17T02:13:31.207Z,20.47
2019-02-17T02:16:02.620Z,22.23
2019-02-17T02:18:33.329Z,21.80
2019-02-17T02:21:03.725Z,21.33
2019-02-17T02:23:34.120Z,21.63
2019-02-17T02:26:23.955Z,22.93
2019-02-17T02:28:56.136Z,22.53
2019-02-17T02:31:26.635Z,24.87
2019-02-17T02:33:57.214Z,21.13
2019-02-17T02:36:27.601Z,19.30
2019-02-17T02:38:58.004Z,21.47
2019-02-17T02:41:34.886Z,22.93
2019-02-17T02:43:59.032Z,23.37
2019-02-17T02:46:30.637Z,22.13
2019-02-17T02:49:01.108Z,23.63
2019-02-17T02:51:33.420Z,24.23
2019-02-17T02:54:04.710Z,24.50
2019-02-17T02:56:35.161Z,26.77
2019-02-17T02:59:05.628Z,25.00
2019-02-17T03:01:35.962Z,26.97
2019-02-17T03:04:06.366Z,29.73
2019-02-17T03:06:42.575Z,30.53
2019-02-17T03:09:13.919Z,28.47
2019-02-17T03:11:45.105Z,28.83
2019-02-17T03:14:18.620Z,28.90
2019-02-17T03:16:49.972Z,28.60
2019-02-17T03:19:20.309Z,26.17
2019-02-17T03:21:51.042Z,28.40
2019-02-17T03:24:22.149Z,26.17
2019-02-17T03:26:52.576Z,24.10
2019-02-17T03:29:23.172Z,22.97
2019-02-17T03:31:55.347Z,26.53
2019-02-17T03:34:26.059Z,25.67
2019-02-17T03:36:56.401Z,25.80
2019-02-17T03:39:27.498Z,24.53
2019-02-17T03:41:57.969Z,23.53
2019-02-17T03:44:28.421Z,22.87
2019-02-17T03:46:58.849Z,23.13
2019-02-17T03:49:29.247Z,24.90
2019-02-17T03:51:59.514Z,23.40
2019-02-17T03:54:29.895Z,23.23
2019-02-17T03:57:00.362Z,22.73
2019-02-17T03:59:31.762Z,21.33
2019-02-17T04:02:02.373Z,23.57
2019-02-17T04:04:32.785Z,23.70
2019-02-17T04:07:07.288Z,22.20
2019-02-17T04:09:37.950Z,21.53
2019-02-17T04:12:08.413Z,23.53
2019-02-17T04:14:38.827Z,22.00
2019-02-17T04:17:09.262Z,20.60
2019-02-17T04:19:39.734Z,21.67
2019-02-17T04:22:10.134Z,21.43
2019-02-17T04:24:42.667Z,20.87
2019-02-17T04:27:13.167Z,22.10
2019-02-17T04:29:43.413Z,20.53
2019-02-17T04:32:14.205Z,18.83
2019-02-17T04:34:44.623Z,16.93
2019-02-17T04:37:15.140Z,21.00
2019-02-17T04:39:45.541Z,20.23
2019-02-17T04:42:15.941Z,19.63
2019-02-17T04:44:46.579Z,17.83
2019-02-17T04:47:17.049Z,20.47
2019-02-17T04:52:30.962Z,17.37
2019-02-17T04:55:01.556Z,18.37
2019-02-17T04:57:31.947Z,18.77
2019-02-17T05:00:20.776Z,17.10
2019-02-17T05:02:51.266Z,18.43
2019-02-17T05:05:21.822Z,16.77
2019-02-17T05:07:57.462Z,17.50
2019-02-17T05:10:29.012Z,18.17
2019-02-17T05:12:59.373Z,18.27
2019-02-17T05:15:29.790Z,18.73
2019-02-17T05:18:00.306Z,17.07
2019-02-17T05:20:32.616Z,15.60
2019-02-17T05:23:09.522Z,18.10
2019-02-17T05:25:40.034Z,18.07
2019-02-17T05:28:10.449Z,17.67
2019-02-17T05:30:52.402Z,18.67
2019-02-17T05:33:11.538Z,16.47
2019-02-17T05:35:41.916Z,15.90
2019-02-17T05:38:12.325Z,16.63
2019-02-17T05:40:42.653Z,17.33
2019-02-17T05:43:13.981Z,18.13
2019-02-17T05:45:44.441Z,17.20
2019-02-17T05:48:14.809Z,16.23
2019-02-17T05:50:45.214Z,15.20
2019-02-17T05:53:15.711Z,15.57
2019-02-17T05:55:46.178Z,15.90
2019-02-17T05:58:19.849Z,15.83
2019-02-17T06:00:50.295Z,15.57
2019-02-17T06:03:20.682Z,17.20
2019-02-17T06:05:51.025Z,15.43
2019-02-17T06:08:21.412Z,16.33
2019-02-17T06:10:52.051Z,16.83
2019-02-17T06:13:22.458Z,15.60
2019-02-17T06:15:57.914Z,16.43
2019-02-17T06:18:28.332Z,16.97
2019-02-17T06:21:01.066Z,15.83
2019-02-17T06:23:31.461Z,17.17
2019-02-17T06:26:01.868Z,16.20
2019-02-17T06:28:32.367Z,17.37
2019-02-17T06:31:13.723Z,16.93
2019-02-17T06:33:33.531Z,15.73
2019-02-17T06:36:03.965Z,16.30
2019-02-17T06:38:35.688Z,14.87
2019-02-17T06:41:06.026Z,16.57
2019-02-17T06:43:36.389Z,14.60
2019-02-17T06:46:07.072Z,15.47
2019-02-17T06:48:38.266Z,14.60
2019-02-17T06:51:08.982Z,14.47
2019-02-17T06:53:40.523Z,14.53
2019-02-17T06:56:10.910Z,14.93
2019-02-17T06:58:41.291Z,14.97
2019-02-17T07:01:11.860Z,14.17
2019-02-17T07:03:42.430Z,16.00
2019-02-17T07:06:13.853Z,14.53
2019-02-17T07:08:44.223Z,15.20
2019-02-17T07:11:15.384Z,16.20
2019-02-17T07:13:46.648Z,14.20
2019-02-17T07:16:17.033Z,15.83
2019-02-17T07:18:47.411Z,14.70
2019-02-17T07:21:17.873Z,14.27
2019-02-17T07:23:49.112Z,14.30
2019-02-17T07:26:20.331Z,14.27
2019-02-17T07:28:50.721Z,13.97
2019-02-17T07:31:22.599Z,14.50
2019-02-17T07:33:52.475Z,14.40
2019-02-17T07:36:23.717Z,13.87
2019-02-17T07:38:54.866Z,14.73
2019-02-17T07:41:26.026Z,15.67
2019-02-17T07:43:56.668Z,13.53
2019-02-17T07:46:27.193Z,15.10
2019-02-17T07:48:57.561Z,15.53
2019-02-17T07:51:28.136Z,14.67
2019-02-17T07:53:58.455Z,13.80
2019-02-17T07:56:29.750Z,13.47
2019-02-17T07:59:01.227Z,13.50
2019-02-17T08:01:31.615Z,15.27
2019-02-17T08:04:09.537Z,14.07
2019-02-17T08:06:39.928Z,14.30
2019-02-17T08:09:10.323Z,13.90
2019-02-17T08:11:41.477Z,15.00
2019-02-17T08:14:11.943Z,14.73
2019-02-17T08:16:46.611Z,12.03
2019-02-17T08:19:17.072Z,14.80
2019-02-17T08:21:47.463Z,13.17
2019-02-17T08:24:18.117Z,13.50
2019-02-17T08:26:49.276Z,13.10
2019-02-17T08:29:19.811Z,13.03
2019-02-17T08:31:55.789Z,13.30
2019-02-17T08:34:20.466Z,12.37
2019-02-17T08:36:50.834Z,12.20
2019-02-17T08:39:21.168Z,13.00
2019-02-17T08:41:51.552Z,12.50
2019-02-17T08:44:22.081Z,13.03
2019-02-17T08:46:53.428Z,11.13
2019-02-17T08:49:24.010Z,10.77
2019-02-17T08:51:54.457Z,11.17
2019-02-17T08:54:25.801Z,11.93
2019-02-17T08:56:56.963Z,9.83
2019-02-17T09:02:12.129Z,12.83
2019-02-17T09:04:42.430Z,12.10
2019-02-17T09:07:12.750Z,9.87
2019-02-17T09:09:43.072Z,10.47
2019-02-17T09:12:13.516Z,10.97
2019-02-17T09:14:43.897Z,9.77
2019-02-17T09:17:14.239Z,10.83
2019-02-17T09:19:46.690Z,10.67
2019-02-17T09:22:17.105Z,9.33
2019-02-17T09:24:47.560Z,10.07
2019-02-17T09:27:18.977Z,9.70
2019-02-17T09:29:50.200Z,12.17
2019-02-17T09:32:20.580Z,10.93
2019-02-17T09:34:51.025Z,11.00
2019-02-17T09:37:23.398Z,11.80
2019-02-17T09:39:53.846Z,12.43
2019-02-17T09:42:24.414Z,9.77
2019-02-17T09:44:56.076Z,10.03
2019-02-17T09:47:26.403Z,7.60
2019-02-17T09:49:56.792Z,8.70
2019-02-17T09:52:27.230Z,11.70
2019-02-17T09:54:57.639Z,10.67
2019-02-17T09:57:28.025Z,8.67
2019-02-17T09:59:58.540Z,7.10
2019-02-17T10:02:28.932Z,8.30
2019-02-17T10:04:59.848Z,7.07
2019-02-17T10:07:30.930Z,8.00
2019-02-17T10:10:02.118Z,6.67
2019-02-17T10:12:34.550Z,7.43
2019-02-17T10:15:05.747Z,6.67
2019-02-17T10:17:36.140Z,6.53
2019-02-17T10:20:06.527Z,6.13
2019-02-17T10:22:36.894Z,4.93
2019-02-17T10:25:07.279Z,5.10
2019-02-17T10:27:37.603Z,5.30
2019-02-17T10:30:13.853Z,5.90
2019-02-17T10:32:44.280Z,4.13
2019-02-17T10:35:34.039Z,5.00
2019-02-17T10:38:04.667Z,5.00
2019-02-17T10:40:35.065Z,6.13
2019-02-17T10:43:06.231Z,5.47
2019-02-17T10:45:36.627Z,5.17
2019-02-17T10:48:07.785Z,5.20
2019-02-17T10:50:38.175Z,10.33
2019-02-17T10:53:08.595Z,7.17
2019-02-17T10:55:38.985Z,5.40
2019-02-17T10:58:09.367Z,5.63
2019-02-17T11:00:39.886Z,7.77
2019-02-17T11:03:10.454Z,4.03
2019-02-17T11:05:41.877Z,5.57
2019-02-17T11:08:12.399Z,4.80
2019-02-17T11:10:42.972Z,4.60
2019-02-17T11:13:13.344Z,5.20
2019-02-17T11:15:43.809Z,5.77
2019-02-17T11:18:14.166Z,5.57
2019-02-17T11:20:44.543Z,3.90
2019-02-17T11:23:15.002Z,6.13
2019-02-17T11:25:46.153Z,5.37
2019-02-17T11:28:16.578Z,4.97
2019-02-17T11:30:46.968Z,4.83
2019-02-17T11:33:17.295Z,4.83
2019-02-17T11:35:47.703Z,5.43
2019-02-17T11:38:18.104Z,4.23
2019-02-17T11:40:48.484Z,4.23
2019-02-17T11:43:19.901Z,4.40
2019-02-17T11:46:11.718Z,7.10
2019-02-17T11:49:01.262Z,5.30
2019-02-17T11:51:31.656Z,5.73
2019-02-17T11:54:02.044Z,4.60
2019-02-17T11:56:37.544Z,5.23
2019-02-17T11:59:09.776Z,4.93
2019-02-17T12:01:44.426Z,3.90
2019-02-17T12:04:14.805Z,5.23
2019-02-17T12:06:45.244Z,4.40
2019-02-17T12:09:15.818Z,3.77
2019-02-17T12:11:46.213Z,5.17
2019-02-17T12:14:22.777Z,3.63
2019-02-17T12:17:12.540Z,3.67
2019-02-17T12:19:43.040Z,4.67
2019-02-17T12:22:14.188Z,5.87
2019-02-17T12:24:44.569Z,4.63
2019-02-17T12:27:14.949Z,7.63
2019-02-17T12:29:46.303Z,4.27
2019-02-17T12:32:16.881Z,6.35
2019-02-17T12:34:47.384Z,4.57
2019-02-17T12:37:19.827Z,3.97
2019-02-17T12:39:52.201Z,5.67
2019-02-17T12:42:23.472Z,3.53
2019-02-17T12:44:54.055Z,4.13
2019-02-17T12:47:25.643Z,4.17
2019-02-17T12:49:56.038Z,4.17
2019-02-17T12:52:26.419Z,4.67
2019-02-17T12:54:57.124Z,5.27
2019-02-17T12:57:28.710Z,4.80
2019-02-17T13:02:51.358Z,6.57
2019-02-17T13:05:21.780Z,5.27
2019-02-17T13:07:52.192Z,4.77
2019-02-17T13:10:23.349Z,3.47
2019-02-17T13:12:53.794Z,4.07
2019-02-17T13:15:24.176Z,4.83
2019-02-17T13:17:54.564Z,5.73
2019-02-17T13:20:44.380Z,3.83
2019-02-17T13:23:14.769Z,4.47
2019-02-17T13:26:04.302Z,4.07
2019-02-17T13:28:35.637Z,4.43
2019-02-17T13:31:06.018Z,3.57
2019-02-17T13:33:39.291Z,4.23
2019-02-17T13:36:08.892Z,4.10
2019-02-17T13:38:39.284Z,5.73
2019-02-17T13:41:09.667Z,4.63
2019-02-17T13:43:40.263Z,3.83
2019-02-17T13:46:11.732Z,6.30
2019-02-17T13:48:42.122Z,5.57
2019-02-17T13:51:12.514Z,4.70
2019-02-17T13:53:42.888Z,4.33
2019-02-17T13:56:14.291Z,4.97
2019-02-17T13:59:06.853Z,5.30
2019-02-17T14:01:37.226Z,15.60
2019-02-17T14:04:07.625Z,5.90
2019-02-17T14:06:38.076Z,5.63
2019-02-17T14:09:12.811Z,4.90
2019-02-17T14:11:43.202Z,5.77
2019-02-17T14:14:13.581Z,6.43
2019-02-17T14:16:43.971Z,7.10
2019-02-17T14:19:15.223Z,4.60
2019-02-17T14:21:46.369Z,6.90
2019-02-17T14:24:17.518Z,7.40
2019-02-17T14:26:47.838Z,5.30
2019-02-17T14:29:18.292Z,6.90
2019-02-17T14:31:48.941Z,4.57
2019-02-17T14:34:24.443Z,6.47
2019-02-17T14:36:55.646Z,4.87
2019-02-17T14:39:28.096Z,8.87
2019-02-17T14:41:58.487Z,3.83
2019-02-17T14:44:28.934Z,5.87
2019-02-17T14:46:59.330Z,5.80
2019-02-17T14:49:29.722Z,7.10
2019-02-17T14:52:20.315Z,5.97
2019-02-17T14:54:54.805Z,7.00
2019-02-17T14:57:25.178Z,5.27
2019-02-17T14:59:57.611Z,4.87
2019-02-17T15:02:27.936Z,3.70
2019-02-17T15:05:01.113Z,6.87
2019-02-17T15:07:32.256Z,5.07
2019-02-17T15:10:03.749Z,5.37
2019-02-17T15:12:34.395Z,5.87
2019-02-17T15:15:25.179Z,3.47
2019-02-17T15:17:55.514Z,7.83
2019-02-17T15:20:25.892Z,3.53
2019-02-17T15:22:56.395Z,5.63
2019-02-17T15:25:26.785Z,3.80
2019-02-17T15:27:57.243Z,5.13
2019-02-17T15:30:28.364Z,3.70
2019-02-17T15:33:03.962Z,3.67
2019-02-17T15:35:29.284Z,3.80
2019-02-17T15:38:00.432Z,6.63
2019-02-17T15:40:31.683Z,7.83
2019-02-17T15:43:01.990Z,6.90
2019-02-17T15:45:33.080Z,6.27
2019-02-17T15:48:06.608Z,5.43
2019-02-17T15:50:36.990Z,6.63
2019-02-17T15:53:07.398Z,6.17
2019-02-17T15:55:37.832Z,3.83
2019-02-17T15:58:08.923Z,3.63
2019-02-17T16:00:46.786Z,9.10
2019-02-17T16:03:17.111Z,8.23
2019-02-17T16:05:47.491Z,6.70
2019-02-17T16:08:17.944Z,5.40
2019-02-17T16:10:48.801Z,6.53
2019-02-17T16:13:20.010Z,4.40
2019-02-17T16:15:50.277Z,5.77
2019-02-17T16:18:21.227Z,3.93
2019-02-17T16:20:51.548Z,5.87
2019-02-17T16:23:21.928Z,4.73
2019-02-17T16:25:52.394Z,3.70
2019-02-17T16:28:22.787Z,4.60
2019-02-17T16:30:53.116Z,6.57
2019-02-17T16:33:24.900Z,3.93
2019-02-17T16:35:55.303Z,5.97
2019-02-17T16:38:25.685Z,4.10
2019-02-17T16:41:00.466Z,4.57
2019-02-17T16:43:31.799Z,5.37
2019-02-17T17:00:33.265Z,3.13
2019-02-17T17:03:03.650Z,5.13
2019-02-17T17:05:34.043Z,3.80
2019-02-17T17:08:04.495Z,4.60
2019-02-17T17:10:55.299Z,5.70
2019-02-17T17:13:28.793Z,7.10
2019-02-17T17:18:46.406Z,9.97
2019-02-17T17:21:17.557Z,9.73
2019-02-17T17:23:48.705Z,9.70
2019-02-17T17:26:20.256Z,10.70
2019-02-17T17:28:51.488Z,7.53
2019-02-17T17:31:21.873Z,5.43
2019-02-17T17:37:03.340Z,8.60
2019-02-17T17:39:33.670Z,8.57
2019-02-17T17:42:04.125Z,8.93
2019-02-17T17:44:34.557Z,9.23
2019-02-17T17:47:04.935Z,7.77
2019-02-17T17:49:35.267Z,7.90
2019-02-17T17:52:06.096Z,9.20
2019-02-17T17:54:37.427Z,10.17
2019-02-17T17:57:15.206Z,9.47
2019-02-17T17:59:46.726Z,7.70
2019-02-17T18:02:17.883Z,7.27
2019-02-17T18:04:48.311Z,7.43
2019-02-17T18:07:18.717Z,5.50
2019-02-17T18:09:49.100Z,7.53
2019-02-17T18:12:40.958Z,6.83
2019-02-17T18:15:11.351Z,5.73
2019-02-17T18:17:53.915Z,4.70
2019-02-17T18:20:39.647Z,5.17
2019-02-17T18:23:15.142Z,7.27
2019-02-17T18:25:45.781Z,5.63
2019-02-17T18:28:16.165Z,7.23
2019-02-17T18:31:08.085Z,5.13
2019-02-17T18:33:38.399Z,6.90
2019-02-17T18:36:08.843Z,5.83
2019-02-17T18:38:45.364Z,5.37
2019-02-17T18:41:15.898Z,5.70
2019-02-17T18:43:48.255Z,5.90
2019-02-17T18:46:19.697Z,6.57
2019-02-17T18:48:50.084Z,11.17
2019-02-17T18:51:20.459Z,14.43
2019-02-17T18:53:51.063Z,10.67
2019-02-17T18:56:40.805Z,8.77
2019-02-17T18:59:11.151Z,9.47
2019-02-17T19:01:43.749Z,8.80
2019-02-17T19:04:14.115Z,10.57
2019-02-17T19:06:45.383Z,6.57
2019-02-17T19:09:15.976Z,7.07
2019-02-17T19:11:46.302Z,7.03
2019-02-17T19:14:17.812Z,8.50
2019-02-17T19:16:53.309Z,8.03
2019-02-17T19:19:24.466Z,12.57
2019-02-17T19:21:56.129Z,12.77
2019-02-17T19:24:29.807Z,12.67
2019-02-17T19:27:00.134Z,10.53
2019-02-17T19:29:30.565Z,8.93
2019-02-17T19:32:00.956Z,10.83
2019-02-17T19:34:31.341Z,11.57
2019-02-17T19:37:01.807Z,12.83
2019-02-17T19:39:32.187Z,12.70
2019-02-17T19:42:03.385Z,12.00
2019-02-17T19:44:54.156Z,12.33
2019-02-17T19:47:24.573Z,14.03
2019-02-17T19:49:54.951Z,12.33
2019-02-17T19:52:25.318Z,14.77
2019-02-17T19:54:56.729Z,14.33
2019-02-17T19:57:27.461Z,13.30
2019-02-17T19:59:57.849Z,12.70
2019-02-17T20:02:30.664Z,12.23
2019-02-17T20:05:07.380Z,12.10
2019-02-17T20:07:38.520Z,12.80
2019-02-17T20:10:09.604Z,10.90
2019-02-17T20:12:40.049Z,13.80
2019-02-17T20:15:10.624Z,13.90
2019-02-17T20:17:41.238Z,19.80
2019-02-17T20:20:11.562Z,26.65
2019-02-17T20:22:41.957Z,18.53
2019-02-17T20:25:12.590Z,15.17
2019-02-17T20:27:43.158Z,13.83
2019-02-17T20:30:13.497Z,12.37
2019-02-17T20:32:43.941Z,16.07
2019-02-17T20:35:14.334Z,16.03
2019-02-17T20:37:44.707Z,15.60
2019-02-17T20:40:18.272Z,17.33
2019-02-17T20:42:48.655Z,14.77
2019-02-17T20:45:38.445Z,12.17
2019-02-17T20:48:09.022Z,14.23
2019-02-17T20:50:39.385Z,13.17
2019-02-17T20:53:12.132Z,13.93
2019-02-17T20:55:42.457Z,14.30
2019-02-17T20:58:12.771Z,14.83
2019-02-17T21:00:44.217Z,16.03
2019-02-17T21:03:14.651Z,20.00
2019-02-17T21:05:45.791Z,16.10
2019-02-17T21:08:16.878Z,14.90
2019-02-17T21:10:48.330Z,11.97
2019-02-17T21:13:19.741Z,18.00
2019-02-17T21:15:50.902Z,20.47
2019-02-17T21:18:21.276Z,34.57
2019-02-17T21:20:52.628Z,37.70
2019-02-17T21:23:23.009Z,27.10
2019-02-17T21:28:37.220Z,25.00
2019-02-17T21:31:29.298Z,27.00
2019-02-17T21:34:01.818Z,21.47
2019-02-17T21:36:38.499Z,19.40
2019-02-17T21:39:10.994Z,21.93
2019-02-17T21:41:41.314Z,20.13
2019-02-17T21:44:11.996Z,17.67
2019-02-17T21:46:42.384Z,17.67
2019-02-17T21:49:12.707Z,16.23
2019-02-17T21:51:43.144Z,17.27
2019-02-17T21:54:13.533Z,16.13
2019-02-17T21:56:49.086Z,15.13
2019-02-17T21:59:39.604Z,14.40
2019-02-17T22:02:10.026Z,16.10
2019-02-17T22:04:43.673Z,15.00
2019-02-17T22:07:14.823Z,14.63
2019-02-17T22:09:45.267Z,14.57
2019-02-17T22:12:15.667Z,14.47
2019-02-17T22:14:46.920Z,13.80
2019-02-17T22:17:18.073Z,15.07
2019-02-17T22:19:48.690Z,14.20
2019-02-17T22:22:19.889Z,15.17
2019-02-17T22:24:51.302Z,14.53
2019-02-17T22:27:21.920Z,13.40
2019-02-17T22:29:53.130Z,11.77
2019-02-17T22:32:23.448Z,12.37
2019-02-17T22:34:55.870Z,10.90
2019-02-17T22:37:26.595Z,11.63
2019-02-17T22:39:57.851Z,11.87
2019-02-17T22:42:29.003Z,10.40
2019-02-17T22:44:59.378Z,10.37
2019-02-17T22:47:29.764Z,11.23
2019-02-17T22:50:00.338Z,11.33
2019-02-17T22:52:30.616Z,11.17
2019-02-17T22:55:00.941Z,10.77
2019-02-17T22:57:31.336Z,12.77
2019-02-17T23:00:02.859Z,10.93
2019-02-17T23:02:40.400Z,9.33
2019-02-17T23:05:11.663Z,9.43
2019-02-17T23:07:42.264Z,12.80
2019-02-17T23:10:12.642Z,15.00
2019-02-17T23:13:02.695Z,11.50
2019-02-17T23:15:33.394Z,12.80
2019-02-17T23:18:04.730Z,10.87
2019-02-17T23:20:35.223Z,11.80
2019-02-17T23:23:05.606Z,11.13
2019-02-17T23:25:36.998Z,11.97
2019-02-17T23:28:07.443Z,10.13
2019-02-17T23:30:45.184Z,9.50
2019-02-17T23:33:15.553Z,8.40
2019-02-17T23:35:45.932Z,9.27
2019-02-17T23:38:16.438Z,11.17
2019-02-17T23:40:54.057Z,10.03
2019-02-17T23:43:24.723Z,10.40
2019-02-17T23:45:55.094Z,9.93
2019-02-17T23:48:25.668Z,9.83
2019-02-17T23:50:56.929Z,10.07
2019-02-17T23:53:46.337Z,8.70
2019-02-17T23:56:18.793Z,9.27
2019-02-17T23:58:49.170Z,11.50
